sensor_id;sensor_type;location;lat;lon;timestamp;P1;durP1;ratioP1;P2;durP2;ratioP2
78752;SDS011;68072;51.688;7.842;2024-02-16T00:01:24;4.03;;;2.80;;
78752;SDS011;68072;51.688;7.842;2024-02-16T00:03:52;6.72;;;3.28;;
78752;SDS011;68072;51.688;7.842;2024-02-16T00:06:17;6.82;;;2.38;;
78752;SDS011;68072;51.688;7.842;2024-02-16T00:08:45;5.45;;;2.55;;
78752;SDS011;68072;51.688;7.842;2024-02-16T00:11:20;5.20;;;2.35;;
78752;SDS011;68072;51.688;7.842;2024-02-16T00:14:17;4.72;;;2.45;;
78752;SDS011;68072;51.688;7.842;2024-02-16T00:16:50;4.82;;;2.88;;
78752;SDS011;68072;51.688;7.842;2024-02-16T00:19:26;4.38;;;2.20;;
78752;SDS011;68072;51.688;7.842;2024-02-16T00:21:53;3.03;;;2.35;;
78752;SDS011;68072;51.688;7.842;2024-02-16T00:24:18;8.35;;;3.80;;
78752;SDS011;68072;51.688;7.842;2024-02-16T00:31:46;8.68;;;3.47;;
78752;SDS011;68072;51.688;7.842;2024-02-16T00:34:11;12.40;;;3.23;;
78752;SDS011;68072;51.688;7.842;2024-02-16T00:36:36;9.10;;;3.03;;
78752;SDS011;68072;51.688;7.842;2024-02-16T00:39:02;11.02;;;3.67;;
78752;SDS011;68072;51.688;7.842;2024-02-16T00:41:28;10.10;;;3.47;;
78752;SDS011;68072;51.688;7.842;2024-02-16T00:43:54;5.95;;;2.95;;
78752;SDS011;68072;51.688;7.842;2024-02-16T00:46:19;10.82;;;3.33;;
78752;SDS011;68072;51.688;7.842;2024-02-16T00:48:45;5.40;;;2.25;;
78752;SDS011;68072;51.688;7.842;2024-02-16T00:51:11;5.35;;;2.50;;
78752;SDS011;68072;51.688;7.842;2024-02-16T00:53:36;6.70;;;2.37;;
78752;SDS011;68072;51.688;7.842;2024-02-16T00:56:02;3.10;;;1.87;;
78752;SDS011;68072;51.688;7.842;2024-02-16T00:58:28;6.07;;;2.67;;
78752;SDS011;68072;51.688;7.842;2024-02-16T01:00:53;4.05;;;2.53;;
78752;SDS011;68072;51.688;7.842;2024-02-16T01:03:18;2.37;;;1.80;;
78752;SDS011;68072;51.688;7.842;2024-02-16T01:05:46;2.20;;;1.70;;
78752;SDS011;68072;51.688;7.842;2024-02-16T01:10:41;2.10;;;1.67;;
78752;SDS011;68072;51.688;7.842;2024-02-16T01:13:06;7.03;;;1.90;;
78752;SDS011;68072;51.688;7.842;2024-02-16T01:15:32;2.60;;;1.67;;
78752;SDS011;68072;51.688;7.842;2024-02-16T01:17:57;1.50;;;1.40;;
78752;SDS011;68072;51.688;7.842;2024-02-16T01:20:28;2.85;;;2.05;;
78752;SDS011;68072;51.688;7.842;2024-02-16T01:22:56;4.30;;;1.85;;
78752;SDS011;68072;51.688;7.842;2024-02-16T01:25:21;4.05;;;2.10;;
78752;SDS011;68072;51.688;7.842;2024-02-16T01:27:46;2.60;;;1.70;;
78752;SDS011;68072;51.688;7.842;2024-02-16T01:30:11;3.83;;;1.85;;
78752;SDS011;68072;51.688;7.842;2024-02-16T01:32:37;1.70;;;1.60;;
78752;SDS011;68072;51.688;7.842;2024-02-16T01:35:02;2.77;;;2.00;;
78752;SDS011;68072;51.688;7.842;2024-02-16T01:37:28;4.30;;;1.80;;
78752;SDS011;68072;51.688;7.842;2024-02-16T01:39:53;2.50;;;1.60;;
78752;SDS011;68072;51.688;7.842;2024-02-16T01:42:18;1.50;;;1.40;;
78752;SDS011;68072;51.688;7.842;2024-02-16T01:44:44;2.87;;;1.93;;
78752;SDS011;68072;51.688;7.842;2024-02-16T01:47:09;1.60;;;1.50;;
78752;SDS011;68072;51.688;7.842;2024-02-16T01:49:34;2.27;;;1.70;;
78752;SDS011;68072;51.688;7.842;2024-02-16T01:51:59;1.60;;;1.50;;
78752;SDS011;68072;51.688;7.842;2024-02-16T01:54:25;2.15;;;1.52;;
78752;SDS011;68072;51.688;7.842;2024-02-16T01:56:50;3.17;;;1.70;;
78752;SDS011;68072;51.688;7.842;2024-02-16T01:59:19;1.48;;;1.38;;
78752;SDS011;68072;51.688;7.842;2024-02-16T02:01:44;1.70;;;1.60;;
78752;SDS011;68072;51.688;7.842;2024-02-16T02:04:10;2.95;;;1.75;;
78752;SDS011;68072;51.688;7.842;2024-02-16T02:06:35;1.98;;;1.75;;
78752;SDS011;68072;51.688;7.842;2024-02-16T02:09:01;1.70;;;1.60;;
78752;SDS011;68072;51.688;7.842;2024-02-16T02:11:26;4.07;;;1.70;;
78752;SDS011;68072;51.688;7.842;2024-02-16T02:13:52;2.22;;;1.70;;
78752;SDS011;68072;51.688;7.842;2024-02-16T02:16:18;1.77;;;1.67;;
78752;SDS011;68072;51.688;7.842;2024-02-16T02:18:44;1.83;;;1.73;;
78752;SDS011;68072;51.688;7.842;2024-02-16T02:21:09;1.90;;;1.80;;
78752;SDS011;68072;51.688;7.842;2024-02-16T02:23:35;1.85;;;1.75;;
78752;SDS011;68072;51.688;7.842;2024-02-16T02:26:00;1.98;;;1.63;;
78752;SDS011;68072;51.688;7.842;2024-02-16T02:28:26;3.88;;;2.13;;
78752;SDS011;68072;51.688;7.842;2024-02-16T02:30:51;5.70;;;1.97;;
78752;SDS011;68072;51.688;7.842;2024-02-16T02:33:18;2.20;;;2.00;;
78752;SDS011;68072;51.688;7.842;2024-02-16T02:38:10;2.53;;;1.63;;
78752;SDS011;68072;51.688;7.842;2024-02-16T02:40:35;2.47;;;2.27;;
78752;SDS011;68072;51.688;7.842;2024-02-16T02:43:00;3.23;;;1.90;;
78752;SDS011;68072;51.688;7.842;2024-02-16T02:45:25;2.20;;;1.80;;
78752;SDS011;68072;51.688;7.842;2024-02-16T02:47:51;5.13;;;2.37;;
78752;SDS011;68072;51.688;7.842;2024-02-16T02:50:16;3.47;;;2.33;;
78752;SDS011;68072;51.688;7.842;2024-02-16T02:52:42;3.90;;;2.47;;
78752;SDS011;68072;51.688;7.842;2024-02-16T02:55:07;1.93;;;1.70;;
78752;SDS011;68072;51.688;7.842;2024-02-16T02:57:32;3.88;;;1.98;;
78752;SDS011;68072;51.688;7.842;2024-02-16T03:00:02;2.53;;;2.07;;
78752;SDS011;68072;51.688;7.842;2024-02-16T03:02:29;3.22;;;1.42;;
78752;SDS011;68072;51.688;7.842;2024-02-16T03:04:54;3.50;;;2.00;;
78752;SDS011;68072;51.688;7.842;2024-02-16T03:07:19;4.80;;;2.00;;
78752;SDS011;68072;51.688;7.842;2024-02-16T03:09:44;4.13;;;1.80;;
78752;SDS011;68072;51.688;7.842;2024-02-16T03:12:11;2.95;;;2.05;;
78752;SDS011;68072;51.688;7.842;2024-02-16T03:14:36;3.27;;;1.67;;
78752;SDS011;68072;51.688;7.842;2024-02-16T03:17:02;2.55;;;1.58;;
78752;SDS011;68072;51.688;7.842;2024-02-16T03:19:29;5.35;;;1.90;;
78752;SDS011;68072;51.688;7.842;2024-02-16T03:21:54;4.07;;;1.58;;
78752;SDS011;68072;51.688;7.842;2024-02-16T03:24:19;3.23;;;1.93;;
78752;SDS011;68072;51.688;7.842;2024-02-16T03:26:45;2.77;;;1.77;;
78752;SDS011;68072;51.688;7.842;2024-02-16T03:29:10;1.73;;;1.60;;
78752;SDS011;68072;51.688;7.842;2024-02-16T03:31:35;2.37;;;1.60;;
78752;SDS011;68072;51.688;7.842;2024-02-16T03:34:01;1.67;;;1.50;;
78752;SDS011;68072;51.688;7.842;2024-02-16T03:36:26;6.00;;;2.00;;
78752;SDS011;68072;51.688;7.842;2024-02-16T03:38:51;3.23;;;1.60;;
78752;SDS011;68072;51.688;7.842;2024-02-16T03:41:20;2.40;;;1.63;;
78752;SDS011;68072;51.688;7.842;2024-02-16T03:43:46;2.42;;;1.30;;
78752;SDS011;68072;51.688;7.842;2024-02-16T03:46:11;1.55;;;1.38;;
78752;SDS011;68072;51.688;7.842;2024-02-16T03:48:36;2.40;;;1.60;;
78752;SDS011;68072;51.688;7.842;2024-02-16T03:51:02;1.57;;;1.40;;
78752;SDS011;68072;51.688;7.842;2024-02-16T03:53:28;2.00;;;1.60;;
78752;SDS011;68072;51.688;7.842;2024-02-16T03:55:53;1.60;;;1.45;;
78752;SDS011;68072;51.688;7.842;2024-02-16T03:58:18;1.67;;;1.57;;
78752;SDS011;68072;51.688;7.842;2024-02-16T04:00:44;4.38;;;1.92;;
78752;SDS011;68072;51.688;7.842;2024-02-16T04:03:09;2.03;;;1.67;;
78752;SDS011;68072;51.688;7.842;2024-02-16T04:05:35;5.30;;;1.63;;
78752;SDS011;68072;51.688;7.842;2024-02-16T04:08:00;2.47;;;1.50;;
78752;SDS011;68072;51.688;7.842;2024-02-16T04:10:27;2.50;;;1.30;;
78752;SDS011;68072;51.688;7.842;2024-02-16T04:12:53;1.85;;;1.60;;
78752;SDS011;68072;51.688;7.842;2024-02-16T04:15:18;1.13;;;1.10;;
78752;SDS011;68072;51.688;7.842;2024-02-16T04:17:43;1.20;;;1.10;;
78752;SDS011;68072;51.688;7.842;2024-02-16T04:20:09;2.20;;;1.07;;
78752;SDS011;68072;51.688;7.842;2024-02-16T04:22:34;1.30;;;1.20;;
78752;SDS011;68072;51.688;7.842;2024-02-16T04:25:02;1.25;;;1.15;;
78752;SDS011;68072;51.688;7.842;2024-02-16T04:27:29;1.88;;;1.70;;
78752;SDS011;68072;51.688;7.842;2024-02-16T04:29:54;1.50;;;1.40;;
78752;SDS011;68072;51.688;7.842;2024-02-16T04:32:19;1.33;;;1.23;;
78752;SDS011;68072;51.688;7.842;2024-02-16T04:34:44;1.20;;;1.10;;
78752;SDS011;68072;51.688;7.842;2024-02-16T04:37:10;3.00;;;1.67;;
78752;SDS011;68072;51.688;7.842;2024-02-16T04:39:35;4.60;;;1.50;;
78752;SDS011;68072;51.688;7.842;2024-02-16T04:42:00;1.50;;;1.20;;
78752;SDS011;68072;51.688;7.842;2024-02-16T04:44:25;5.60;;;1.50;;
78752;SDS011;68072;51.688;7.842;2024-02-16T04:46:51;2.35;;;1.10;;
78752;SDS011;68072;51.688;7.842;2024-02-16T04:49:17;1.75;;;1.20;;
78752;SDS011;68072;51.688;7.842;2024-02-16T04:51:43;1.77;;;1.20;;
78752;SDS011;68072;51.688;7.842;2024-02-16T04:54:08;1.40;;;1.30;;
78752;SDS011;68072;51.688;7.842;2024-02-16T04:56:33;1.37;;;1.17;;
78752;SDS011;68072;51.688;7.842;2024-02-16T04:58:58;6.80;;;1.70;;
78752;SDS011;68072;51.688;7.842;2024-02-16T05:01:23;1.10;;;0.97;;
78752;SDS011;68072;51.688;7.842;2024-02-16T05:03:49;2.47;;;1.50;;
78752;SDS011;68072;51.688;7.842;2024-02-16T05:06:15;3.33;;;1.10;;
78752;SDS011;68072;51.688;7.842;2024-02-16T05:08:40;2.67;;;1.07;;
78752;SDS011;68072;51.688;7.842;2024-02-16T05:11:05;3.87;;;1.30;;
78752;SDS011;68072;51.688;7.842;2024-02-16T05:13:32;1.75;;;1.15;;
78752;SDS011;68072;51.688;7.842;2024-02-16T05:15:57;1.37;;;1.27;;
78752;SDS011;68072;51.688;7.842;2024-02-16T05:18:23;1.90;;;1.27;;
78752;SDS011;68072;51.688;7.842;2024-02-16T05:20:48;1.67;;;1.23;;
78752;SDS011;68072;51.688;7.842;2024-02-16T05:23:13;3.60;;;1.30;;
78752;SDS011;68072;51.688;7.842;2024-02-16T05:25:38;0.87;;;0.87;;
78752;SDS011;68072;51.688;7.842;2024-02-16T05:28:04;3.73;;;1.70;;
78752;SDS011;68072;51.688;7.842;2024-02-16T05:30:29;4.20;;;1.33;;
78752;SDS011;68072;51.688;7.842;2024-02-16T05:32:54;1.50;;;1.40;;
78752;SDS011;68072;51.688;7.842;2024-02-16T05:35:23;1.33;;;1.10;;
78752;SDS011;68072;51.688;7.842;2024-02-16T05:37:52;1.63;;;1.20;;
78752;SDS011;68072;51.688;7.842;2024-02-16T05:40:18;1.42;;;1.20;;
78752;SDS011;68072;51.688;7.842;2024-02-16T05:42:48;2.17;;;1.48;;
78752;SDS011;68072;51.688;7.842;2024-02-16T05:45:14;1.88;;;1.25;;
78752;SDS011;68072;51.688;7.842;2024-02-16T05:47:40;3.40;;;1.67;;
78752;SDS011;68072;51.688;7.842;2024-02-16T05:50:06;2.22;;;2.03;;
78752;SDS011;68072;51.688;7.842;2024-02-16T05:52:32;2.30;;;1.38;;
78752;SDS011;68072;51.688;7.842;2024-02-16T05:54:57;2.77;;;1.50;;
78752;SDS011;68072;51.688;7.842;2024-02-16T05:57:22;1.60;;;1.10;;
78752;SDS011;68072;51.688;7.842;2024-02-16T05:59:49;1.75;;;1.25;;
78752;SDS011;68072;51.688;7.842;2024-02-16T06:02:14;1.30;;;1.10;;
78752;SDS011;68072;51.688;7.842;2024-02-16T06:04:39;3.47;;;1.37;;
78752;SDS011;68072;51.688;7.842;2024-02-16T06:07:05;1.87;;;1.30;;
78752;SDS011;68072;51.688;7.842;2024-02-16T06:09:31;1.30;;;1.20;;
78752;SDS011;68072;51.688;7.842;2024-02-16T06:12:00;1.63;;;1.20;;
78752;SDS011;68072;51.688;7.842;2024-02-16T06:14:25;1.50;;;1.40;;
78752;SDS011;68072;51.688;7.842;2024-02-16T06:16:50;1.60;;;1.13;;
78752;SDS011;68072;51.688;7.842;2024-02-16T06:19:15;1.43;;;1.33;;
78752;SDS011;68072;51.688;7.842;2024-02-16T06:21:40;1.50;;;1.37;;
78752;SDS011;68072;51.688;7.842;2024-02-16T06:24:06;4.07;;;1.47;;
78752;SDS011;68072;51.688;7.842;2024-02-16T06:26:32;1.40;;;1.20;;
78752;SDS011;68072;51.688;7.842;2024-02-16T06:28:58;2.03;;;1.60;;
78752;SDS011;68072;51.688;7.842;2024-02-16T06:31:23;1.80;;;1.10;;
78752;SDS011;68072;51.688;7.842;2024-02-16T06:33:48;2.07;;;1.40;;
78752;SDS011;68072;51.688;7.842;2024-02-16T06:36:13;3.63;;;1.40;;
78752;SDS011;68072;51.688;7.842;2024-02-16T06:38:39;1.47;;;1.37;;
78752;SDS011;68072;51.688;7.842;2024-02-16T06:41:04;2.47;;;1.40;;
78752;SDS011;68072;51.688;7.842;2024-02-16T06:43:29;1.60;;;1.35;;
78752;SDS011;68072;51.688;7.842;2024-02-16T06:45:54;4.53;;;1.47;;
78752;SDS011;68072;51.688;7.842;2024-02-16T06:48:22;2.90;;;1.33;;
78752;SDS011;68072;51.688;7.842;2024-02-16T06:50:47;4.68;;;1.25;;
78752;SDS011;68072;51.688;7.842;2024-02-16T06:53:12;1.90;;;1.73;;
78752;SDS011;68072;51.688;7.842;2024-02-16T06:55:37;3.70;;;1.30;;
78752;SDS011;68072;51.688;7.842;2024-02-16T06:58:02;1.50;;;1.40;;
78752;SDS011;68072;51.688;7.842;2024-02-16T07:00:28;1.63;;;1.53;;
78752;SDS011;68072;51.688;7.842;2024-02-16T07:02:54;3.78;;;1.83;;
78752;SDS011;68072;51.688;7.842;2024-02-16T07:05:19;1.40;;;1.30;;
78752;SDS011;68072;51.688;7.842;2024-02-16T07:07:44;2.20;;;1.60;;
78752;SDS011;68072;51.688;7.842;2024-02-16T07:10:09;1.50;;;1.40;;
78752;SDS011;68072;51.688;7.842;2024-02-16T07:12:38;3.05;;;1.75;;
78752;SDS011;68072;51.688;7.842;2024-02-16T07:15:04;2.78;;;1.52;;
78752;SDS011;68072;51.688;7.842;2024-02-16T07:17:29;2.63;;;1.52;;
78752;SDS011;68072;51.688;7.842;2024-02-16T07:19:55;1.47;;;1.37;;
78752;SDS011;68072;51.688;7.842;2024-02-16T07:22:20;2.13;;;1.40;;
78752;SDS011;68072;51.688;7.842;2024-02-16T07:24:45;1.55;;;1.40;;
78752;SDS011;68072;51.688;7.842;2024-02-16T07:27:10;5.60;;;1.33;;
78752;SDS011;68072;51.688;7.842;2024-02-16T07:29:35;1.50;;;1.20;;
78752;SDS011;68072;51.688;7.842;2024-02-16T07:32:03;1.30;;;1.20;;
78752;SDS011;68072;51.688;7.842;2024-02-16T07:34:28;3.22;;;1.33;;
78752;SDS011;68072;51.688;7.842;2024-02-16T07:36:53;2.95;;;1.73;;
78752;SDS011;68072;51.688;7.842;2024-02-16T07:39:19;3.70;;;1.85;;
78752;SDS011;68072;51.688;7.842;2024-02-16T07:41:47;1.90;;;1.80;;
78752;SDS011;68072;51.688;7.842;2024-02-16T07:44:12;2.43;;;1.33;;
78752;SDS011;68072;51.688;7.842;2024-02-16T07:46:41;3.33;;;1.80;;
78752;SDS011;68072;51.688;7.842;2024-02-16T07:49:06;2.22;;;1.50;;
78752;SDS011;68072;51.688;7.842;2024-02-16T07:51:31;3.70;;;1.60;;
78752;SDS011;68072;51.688;7.842;2024-02-16T07:53:57;2.25;;;1.70;;
78752;SDS011;68072;51.688;7.842;2024-02-16T07:56:22;1.93;;;1.60;;
78752;SDS011;68072;51.688;7.842;2024-02-16T07:58:47;3.33;;;1.73;;
78752;SDS011;68072;51.688;7.842;2024-02-16T08:01:13;4.30;;;1.90;;
78752;SDS011;68072;51.688;7.842;2024-02-16T08:03:40;3.70;;;1.75;;
78752;SDS011;68072;51.688;7.842;2024-02-16T08:06:05;3.50;;;1.73;;
78752;SDS011;68072;51.688;7.842;2024-02-16T08:08:31;2.50;;;1.70;;
78752;SDS011;68072;51.688;7.842;2024-02-16T08:10:56;3.57;;;2.13;;
78752;SDS011;68072;51.688;7.842;2024-02-16T08:13:21;1.70;;;1.60;;
78752;SDS011;68072;51.688;7.842;2024-02-16T08:15:46;2.80;;;2.17;;
78752;SDS011;68072;51.688;7.842;2024-02-16T08:18:12;2.65;;;1.80;;
78752;SDS011;68072;51.688;7.842;2024-02-16T08:20:38;2.05;;;1.80;;
78752;SDS011;68072;51.688;7.842;2024-02-16T08:23:04;2.30;;;1.92;;
78752;SDS011;68072;51.688;7.842;2024-02-16T08:25:29;2.67;;;1.90;;
78752;SDS011;68072;51.688;7.842;2024-02-16T08:27:55;2.53;;;2.08;;
78752;SDS011;68072;51.688;7.842;2024-02-16T08:30:20;1.92;;;1.80;;
78752;SDS011;68072;51.688;7.842;2024-02-16T08:32:46;5.47;;;1.60;;
78752;SDS011;68072;51.688;7.842;2024-02-16T08:35:11;3.60;;;1.73;;
78752;SDS011;68072;51.688;7.842;2024-02-16T08:37:39;3.20;;;1.77;;
78752;SDS011;68072;51.688;7.842;2024-02-16T08:40:07;4.03;;;2.23;;
78752;SDS011;68072;51.688;7.842;2024-02-16T08:42:33;3.00;;;1.75;;
78752;SDS011;68072;51.688;7.842;2024-02-16T08:44:59;2.05;;;1.85;;
78752;SDS011;68072;51.688;7.842;2024-02-16T08:49:50;3.13;;;1.70;;
78752;SDS011;68072;51.688;7.842;2024-02-16T08:52:15;2.83;;;2.10;;
78752;SDS011;68072;51.688;7.842;2024-02-16T08:54:42;1.40;;;1.30;;
78752;SDS011;68072;51.688;7.842;2024-02-16T08:57:07;2.65;;;1.85;;
78752;SDS011;68072;51.688;7.842;2024-02-16T08:59:32;2.40;;;1.63;;
78752;SDS011;68072;51.688;7.842;2024-02-16T09:01:59;2.13;;;1.70;;
78752;SDS011;68072;51.688;7.842;2024-02-16T09:04:24;4.27;;;1.47;;
78752;SDS011;68072;51.688;7.842;2024-02-16T09:06:50;1.25;;;1.15;;
78752;SDS011;68072;51.688;7.842;2024-02-16T09:09:16;4.30;;;1.70;;
78752;SDS011;68072;51.688;7.842;2024-02-16T09:11:41;2.63;;;1.50;;
78752;SDS011;68072;51.688;7.842;2024-02-16T09:14:06;2.30;;;1.50;;
78752;SDS011;68072;51.688;7.842;2024-02-16T09:16:31;4.00;;;1.60;;
78752;SDS011;68072;51.688;7.842;2024-02-16T09:18:57;2.67;;;1.53;;
78752;SDS011;68072;51.688;7.842;2024-02-16T09:21:23;1.70;;;1.60;;
78752;SDS011;68072;51.688;7.842;2024-02-16T09:23:52;5.80;;;1.85;;
78752;SDS011;68072;51.688;7.842;2024-02-16T09:26:17;2.28;;;2.08;;
78752;SDS011;68072;51.688;7.842;2024-02-16T09:28:43;7.95;;;1.90;;
78752;SDS011;68072;51.688;7.842;2024-02-16T09:31:09;1.15;;;1.15;;
78752;SDS011;68072;51.688;7.842;2024-02-16T09:33:34;1.90;;;1.67;;
78752;SDS011;68072;51.688;7.842;2024-02-16T09:36:00;5.80;;;1.85;;
78752;SDS011;68072;51.688;7.842;2024-02-16T09:38:25;2.40;;;1.67;;
78752;SDS011;68072;51.688;7.842;2024-02-16T09:40:51;2.57;;;1.77;;
78752;SDS011;68072;51.688;7.842;2024-02-16T09:43:26;2.45;;;1.40;;
78752;SDS011;68072;51.688;7.842;2024-02-16T09:45:57;2.25;;;1.92;;
78752;SDS011;68072;51.688;7.842;2024-02-16T09:48:25;2.63;;;1.50;;
78752;SDS011;68072;51.688;7.842;2024-02-16T09:50:51;4.47;;;1.50;;
78752;SDS011;68072;51.688;7.842;2024-02-16T09:53:18;1.90;;;1.48;;
78752;SDS011;68072;51.688;7.842;2024-02-16T09:55:45;3.08;;;1.60;;
78752;SDS011;68072;51.688;7.842;2024-02-16T09:58:10;2.28;;;1.58;;
78752;SDS011;68072;51.688;7.842;2024-02-16T10:00:42;1.88;;;1.45;;
78752;SDS011;68072;51.688;7.842;2024-02-16T10:03:07;3.53;;;1.70;;
78752;SDS011;68072;51.688;7.842;2024-02-16T10:05:35;2.60;;;1.30;;
78752;SDS011;68072;51.688;7.842;2024-02-16T10:08:10;3.42;;;1.63;;
78752;SDS011;68072;51.688;7.842;2024-02-16T10:10:35;7.93;;;2.10;;
78752;SDS011;68072;51.688;7.842;2024-02-16T10:15:29;3.00;;;1.60;;
78752;SDS011;68072;51.688;7.842;2024-02-16T10:18:00;2.83;;;1.67;;
78752;SDS011;68072;51.688;7.842;2024-02-16T10:20:26;7.13;;;1.58;;
78752;SDS011;68072;51.688;7.842;2024-02-16T10:23:10;1.80;;;1.70;;
78752;SDS011;68072;51.688;7.842;2024-02-16T10:25:36;2.10;;;1.60;;
78752;SDS011;68072;51.688;7.842;2024-02-16T10:30:29;2.08;;;1.83;;
78752;SDS011;68072;51.688;7.842;2024-02-16T10:32:56;2.40;;;1.98;;
78752;SDS011;68072;51.688;7.842;2024-02-16T10:35:21;2.72;;;1.90;;
78752;SDS011;68072;51.688;7.842;2024-02-16T10:37:49;1.58;;;1.48;;
78752;SDS011;68072;51.688;7.842;2024-02-16T10:40:14;1.98;;;1.50;;
78752;SDS011;68072;51.688;7.842;2024-02-16T10:42:44;5.40;;;2.40;;
78752;SDS011;68072;51.688;7.842;2024-02-16T10:45:10;2.95;;;1.90;;
78752;SDS011;68072;51.688;7.842;2024-02-16T10:47:38;4.75;;;1.98;;
78752;SDS011;68072;51.688;7.842;2024-02-16T10:50:04;3.53;;;2.00;;
78752;SDS011;68072;51.688;7.842;2024-02-16T10:52:29;4.07;;;2.15;;
78752;SDS011;68072;51.688;7.842;2024-02-16T10:54:55;2.15;;;1.65;;
78752;SDS011;68072;51.688;7.842;2024-02-16T10:57:23;4.20;;;2.55;;
78752;SDS011;68072;51.688;7.842;2024-02-16T10:59:49;4.00;;;2.00;;
78752;SDS011;68072;51.688;7.842;2024-02-16T11:02:17;2.53;;;1.80;;
78752;SDS011;68072;51.688;7.842;2024-02-16T11:04:45;3.20;;;1.80;;
78752;SDS011;68072;51.688;7.842;2024-02-16T11:07:11;6.70;;;1.90;;
78752;SDS011;68072;51.688;7.842;2024-02-16T11:09:38;2.42;;;2.05;;
78752;SDS011;68072;51.688;7.842;2024-02-16T11:12:04;2.72;;;1.60;;
78752;SDS011;68072;51.688;7.842;2024-02-16T11:17:07;2.22;;;1.92;;
78752;SDS011;68072;51.688;7.842;2024-02-16T11:19:33;2.05;;;1.70;;
78752;SDS011;68072;51.688;7.842;2024-02-16T11:21:59;3.70;;;1.93;;
78752;SDS011;68072;51.688;7.842;2024-02-16T11:24:32;5.13;;;1.80;;
78752;SDS011;68072;51.688;7.842;2024-02-16T11:26:58;2.17;;;1.75;;
78752;SDS011;68072;51.688;7.842;2024-02-16T11:29:25;3.73;;;1.90;;
78752;SDS011;68072;51.688;7.842;2024-02-16T11:31:50;3.80;;;1.45;;
78752;SDS011;68072;51.688;7.842;2024-02-16T11:34:24;3.60;;;1.70;;
78752;SDS011;68072;51.688;7.842;2024-02-16T11:36:57;2.20;;;1.92;;
78752;SDS011;68072;51.688;7.842;2024-02-16T11:39:23;9.52;;;2.15;;
78752;SDS011;68072;51.688;7.842;2024-02-16T11:41:58;6.20;;;1.90;;
78752;SDS011;68072;51.688;7.842;2024-02-16T11:44:23;2.90;;;1.63;;
78752;SDS011;68072;51.688;7.842;2024-02-16T11:46:52;2.73;;;1.73;;
78752;SDS011;68072;51.688;7.842;2024-02-16T11:49:18;5.00;;;1.77;;
78752;SDS011;68072;51.688;7.842;2024-02-16T11:51:43;12.93;;;2.10;;
78752;SDS011;68072;51.688;7.842;2024-02-16T11:54:09;2.13;;;1.73;;
78752;SDS011;68072;51.688;7.842;2024-02-16T11:56:34;2.42;;;1.85;;
78752;SDS011;68072;51.688;7.842;2024-02-16T11:58:59;9.32;;;2.35;;
78752;SDS011;68072;51.688;7.842;2024-02-16T12:01:25;2.90;;;2.00;;
78752;SDS011;68072;51.688;7.842;2024-02-16T12:03:50;4.68;;;1.88;;
78752;SDS011;68072;51.688;7.842;2024-02-16T12:06:19;5.50;;;2.33;;
78752;SDS011;68072;51.688;7.842;2024-02-16T12:08:45;2.30;;;2.10;;
78752;SDS011;68072;51.688;7.842;2024-02-16T12:11:10;3.10;;;1.73;;
78752;SDS011;68072;51.688;7.842;2024-02-16T12:13:35;2.80;;;1.93;;
78752;SDS011;68072;51.688;7.842;2024-02-16T12:16:01;5.00;;;2.43;;
78752;SDS011;68072;51.688;7.842;2024-02-16T12:18:26;6.65;;;2.25;;
78752;SDS011;68072;51.688;7.842;2024-02-16T12:21:05;4.68;;;2.30;;
78752;SDS011;68072;51.688;7.842;2024-02-16T12:23:31;2.15;;;1.70;;
78752;SDS011;68072;51.688;7.842;2024-02-16T12:25:57;3.45;;;1.73;;
78752;SDS011;68072;51.688;7.842;2024-02-16T12:28:26;4.68;;;2.60;;
78752;SDS011;68072;51.688;7.842;2024-02-16T12:30:57;8.77;;;3.85;;
78752;SDS011;68072;51.688;7.842;2024-02-16T12:33:22;5.50;;;2.17;;
78752;SDS011;68072;51.688;7.842;2024-02-16T12:35:48;3.00;;;1.80;;
78752;SDS011;68072;51.688;7.842;2024-02-16T12:38:13;5.53;;;2.47;;
78752;SDS011;68072;51.688;7.842;2024-02-16T12:40:38;3.37;;;2.37;;
78752;SDS011;68072;51.688;7.842;2024-02-16T12:43:03;5.10;;;2.30;;
78752;SDS011;68072;51.688;7.842;2024-02-16T12:45:29;2.75;;;1.92;;
78752;SDS011;68072;51.688;7.842;2024-02-16T12:47:54;2.35;;;2.08;;
78752;SDS011;68072;51.688;7.842;2024-02-16T12:50:19;5.17;;;2.40;;
78752;SDS011;68072;51.688;7.842;2024-02-16T12:52:45;4.87;;;2.70;;
78752;SDS011;68072;51.688;7.842;2024-02-16T12:55:10;5.03;;;2.63;;
78752;SDS011;68072;51.688;7.842;2024-02-16T12:57:36;6.50;;;2.50;;
78752;SDS011;68072;51.688;7.842;2024-02-16T13:00:01;5.43;;;2.53;;
78752;SDS011;68072;51.688;7.842;2024-02-16T13:02:28;3.00;;;2.25;;
78752;SDS011;68072;51.688;7.842;2024-02-16T13:07:19;3.03;;;2.40;;
78752;SDS011;68072;51.688;7.842;2024-02-16T13:09:44;4.65;;;2.63;;
78752;SDS011;68072;51.688;7.842;2024-02-16T13:12:10;6.40;;;2.85;;
78752;SDS011;68072;51.688;7.842;2024-02-16T13:14:35;5.00;;;2.77;;
78752;SDS011;68072;51.688;7.842;2024-02-16T13:19:26;6.63;;;2.43;;
78752;SDS011;68072;51.688;7.842;2024-02-16T13:21:52;3.50;;;2.47;;
78752;SDS011;68072;51.688;7.842;2024-02-16T13:24:17;9.35;;;2.67;;
78752;SDS011;68072;51.688;7.842;2024-02-16T13:26:43;7.88;;;3.25;;
78752;SDS011;68072;51.688;7.842;2024-02-16T13:29:08;8.70;;;2.70;;
78752;SDS011;68072;51.688;7.842;2024-02-16T13:31:33;4.50;;;2.57;;
78752;SDS011;68072;51.688;7.842;2024-02-16T13:33:59;6.43;;;2.83;;
78752;SDS011;68072;51.688;7.842;2024-02-16T13:36:25;7.22;;;2.80;;
78752;SDS011;68072;51.688;7.842;2024-02-16T13:38:50;5.17;;;2.53;;
78752;SDS011;68072;51.688;7.842;2024-02-16T13:41:15;5.20;;;2.88;;
78752;SDS011;68072;51.688;7.842;2024-02-16T13:43:41;6.80;;;3.40;;
78752;SDS011;68072;51.688;7.842;2024-02-16T13:46:06;5.60;;;2.77;;
78752;SDS011;68072;51.688;7.842;2024-02-16T13:48:31;8.83;;;2.50;;
78752;SDS011;68072;51.688;7.842;2024-02-16T13:50:56;7.83;;;2.90;;
78752;SDS011;68072;51.688;7.842;2024-02-16T13:53:22;5.22;;;3.17;;
78752;SDS011;68072;51.688;7.842;2024-02-16T14:08:36;7.18;;;3.60;;
78752;SDS011;68072;51.688;7.842;2024-02-16T14:11:01;4.43;;;2.90;;
78752;SDS011;68072;51.688;7.842;2024-02-16T14:13:27;8.82;;;3.50;;
78752;SDS011;68072;51.688;7.842;2024-02-16T14:15:52;8.80;;;3.58;;
78752;SDS011;68072;51.688;7.842;2024-02-16T14:18:17;4.20;;;3.40;;
78752;SDS011;68072;51.688;7.842;2024-02-16T14:20:43;6.13;;;3.20;;
78752;SDS011;68072;51.688;7.842;2024-02-16T14:23:08;9.07;;;4.40;;
78752;SDS011;68072;51.688;7.842;2024-02-16T14:25:34;9.70;;;3.78;;
78752;SDS011;68072;51.688;7.842;2024-02-16T14:28:02;10.25;;;3.92;;
78752;SDS011;68072;51.688;7.842;2024-02-16T14:30:27;3.77;;;3.10;;
78752;SDS011;68072;51.688;7.842;2024-02-16T14:32:53;5.82;;;4.28;;
78752;SDS011;68072;51.688;7.842;2024-02-16T14:35:18;7.10;;;4.20;;
78752;SDS011;68072;51.688;7.842;2024-02-16T14:37:43;4.23;;;3.83;;
78752;SDS011;68072;51.688;7.842;2024-02-16T14:40:09;9.80;;;4.23;;
78752;SDS011;68072;51.688;7.842;2024-02-16T14:42:38;3.35;;;2.83;;
78752;SDS011;68072;51.688;7.842;2024-02-16T14:45:04;5.15;;;3.55;;
78752;SDS011;68072;51.688;7.842;2024-02-16T14:47:34;5.68;;;3.80;;
78752;SDS011;68072;51.688;7.842;2024-02-16T14:49:59;7.63;;;3.87;;
78752;SDS011;68072;51.688;7.842;2024-02-16T14:52:24;9.60;;;3.73;;
78752;SDS011;68072;51.688;7.842;2024-02-16T14:54:49;5.50;;;3.83;;
78752;SDS011;68072;51.688;7.842;2024-02-16T14:57:15;6.30;;;4.40;;
78752;SDS011;68072;51.688;7.842;2024-02-16T14:59:44;5.22;;;3.95;;
78752;SDS011;68072;51.688;7.842;2024-02-16T15:02:10;10.07;;;4.73;;
78752;SDS011;68072;51.688;7.842;2024-02-16T15:04:35;5.80;;;3.97;;
78752;SDS011;68072;51.688;7.842;2024-02-16T15:07:01;8.70;;;4.50;;
78752;SDS011;68072;51.688;7.842;2024-02-16T15:09:26;9.33;;;4.97;;
78752;SDS011;68072;51.688;7.842;2024-02-16T15:11:51;8.80;;;5.77;;
78752;SDS011;68072;51.688;7.842;2024-02-16T15:14:16;9.57;;;5.40;;
78752;SDS011;68072;51.688;7.842;2024-02-16T15:16:41;7.97;;;5.00;;
78752;SDS011;68072;51.688;7.842;2024-02-16T15:19:07;12.33;;;6.10;;